createdAt,value
2022-10-29T00:01:57.285Z,8.20
2022-10-29T00:04:25.352Z,7.60
2022-10-29T00:06:53.258Z,8.10
2022-10-29T00:09:21.133Z,8.43
2022-10-29T00:11:48.871Z,9.02
2022-10-29T00:14:18.077Z,7.38
2022-10-29T00:16:47.238Z,8.23
2022-10-29T00:19:15.119Z,7.75
2022-10-29T00:21:42.868Z,8.43
2022-10-29T00:24:11.127Z,8.90
2022-10-29T00:26:39.146Z,8.15
2022-10-29T00:29:07.084Z,7.68
2022-10-29T00:31:35.263Z,8.75
2022-10-29T00:34:04.662Z,8.30
2022-10-29T00:36:32.425Z,7.80
2022-10-29T00:39:00.243Z,8.65
2022-10-29T00:41:30.842Z,8.20
2022-10-29T00:44:28.393Z,8.25
2022-10-29T00:47:02.605Z,8.57
2022-10-29T00:49:32.842Z,8.48
2022-10-29T00:54:31.595Z,8.35
2022-10-29T00:57:04.437Z,8.32
2022-10-29T00:59:33.180Z,8.55
2022-10-29T01:02:01.396Z,8.80
2022-10-29T01:04:31.755Z,8.90
2022-10-29T01:09:28.616Z,8.02
2022-10-29T01:12:13.860Z,8.95
2022-10-29T01:14:53.245Z,8.27
2022-10-29T01:17:31.284Z,9.17
2022-10-29T01:20:52.691Z,7.93
2022-10-29T01:23:48.297Z,8.75
2022-10-29T01:26:48.940Z,8.45
2022-10-29T01:29:36.782Z,9.18
2022-10-29T01:32:12.022Z,8.25
2022-10-29T01:34:44.577Z,8.15
2022-10-29T01:37:20.969Z,8.90
2022-10-29T01:39:55.444Z,8.23
2022-10-29T01:42:29.652Z,9.55
2022-10-29T01:45:05.730Z,8.23
2022-10-29T01:47:41.415Z,9.90
2022-10-29T01:50:13.018Z,8.70
2022-10-29T01:52:41.534Z,7.38
2022-10-29T01:55:10.130Z,8.63
2022-10-29T01:57:39.974Z,8.45
2022-10-29T02:00:11.040Z,8.32
2022-10-29T02:02:52.474Z,8.48
2022-10-29T02:05:29.820Z,8.45
2022-10-29T02:08:04.755Z,8.65
2022-10-29T02:10:40.038Z,8.32
2022-10-29T02:13:11.756Z,9.02
2022-10-29T02:15:45.399Z,8.07
2022-10-29T02:18:15.315Z,8.77
2022-10-29T02:20:44.358Z,8.15
2022-10-29T02:23:12.261Z,7.93
2022-10-29T02:25:40.163Z,8.30
2022-10-29T02:28:09.584Z,8.75
2022-10-29T02:30:37.505Z,9.25
2022-10-29T02:33:05.502Z,8.85
2022-10-29T02:35:34.786Z,9.35
2022-10-29T02:38:02.629Z,8.98
2022-10-29T02:40:30.474Z,10.25
2022-10-29T02:42:58.644Z,8.98
2022-10-29T02:45:26.549Z,8.77
2022-10-29T02:47:54.756Z,9.77
2022-10-29T02:50:22.788Z,9.45
2022-10-29T02:52:51.939Z,8.43
2022-10-29T02:55:19.792Z,8.38
2022-10-29T02:57:48.101Z,8.93
2022-10-29T03:00:16.855Z,8.18
2022-10-29T03:02:44.918Z,7.88
2022-10-29T03:05:12.911Z,7.93
2022-10-29T03:07:40.816Z,8.23
2022-10-29T03:10:10.843Z,9.65
2022-10-29T03:12:38.721Z,8.15
2022-10-29T03:15:07.564Z,8.02
2022-10-29T03:17:35.379Z,10.57
2022-10-29T03:20:03.254Z,9.65
2022-10-29T03:22:31.044Z,9.05
2022-10-29T03:24:58.861Z,8.65
2022-10-29T03:27:28.024Z,8.65
2022-10-29T03:29:55.871Z,8.93
2022-10-29T03:32:23.648Z,8.80
2022-10-29T03:34:54.787Z,9.05
2022-10-29T03:37:25.388Z,9.23
2022-10-29T03:39:53.217Z,9.07
2022-10-29T03:42:20.988Z,9.98
2022-10-29T03:44:50.185Z,9.98
2022-10-29T03:47:18.011Z,9.70
2022-10-29T03:49:45.793Z,8.52
2022-10-29T03:52:13.669Z,9.23
2022-10-29T03:54:41.483Z,9.45
2022-10-29T03:57:09.602Z,8.68
2022-10-29T03:59:37.795Z,9.20
2022-10-29T04:02:07.172Z,8.85
2022-10-29T04:04:35.117Z,10.65
2022-10-29T04:07:02.959Z,9.23
2022-10-29T04:09:30.802Z,9.73
2022-10-29T04:11:58.585Z,9.90
2022-10-29T04:14:26.655Z,9.10
2022-10-29T04:16:54.485Z,9.82
2022-10-29T04:19:23.712Z,10.27
2022-10-29T04:30:16.281Z,8.60
2022-10-29T04:32:44.125Z,8.82
2022-10-29T04:35:13.354Z,9.18
2022-10-29T04:37:41.365Z,9.25
2022-10-29T04:40:10.397Z,9.65
2022-10-29T04:42:38.356Z,9.07
2022-10-29T04:45:07.344Z,10.07
2022-10-29T04:47:35.377Z,10.50
2022-10-29T04:50:03.168Z,8.85
2022-10-29T04:52:32.547Z,9.00
2022-10-29T04:55:00.347Z,10.13
2022-10-29T04:57:28.259Z,10.32
2022-10-29T04:59:56.137Z,9.75
2022-10-29T05:02:23.964Z,9.65
2022-10-29T05:04:51.915Z,10.18
2022-10-29T05:07:19.836Z,9.90
2022-10-29T05:09:49.032Z,9.80
2022-10-29T05:12:16.826Z,9.48
2022-10-29T05:14:44.690Z,9.52
2022-10-29T05:17:12.527Z,9.52
2022-10-29T05:19:40.434Z,9.35
2022-10-29T05:22:08.344Z,9.35
2022-10-29T05:24:36.198Z,9.65
2022-10-29T05:27:06.643Z,9.15
2022-10-29T05:29:34.803Z,9.63
2022-10-29T05:32:02.628Z,10.93
2022-10-29T05:34:30.484Z,10.00
2022-10-29T05:36:58.374Z,12.50
2022-10-29T05:39:26.210Z,11.35
2022-10-29T05:41:54.098Z,10.43
2022-10-29T05:44:23.195Z,10.80
2022-10-29T05:46:51.072Z,9.43
2022-10-29T05:49:18.892Z,10.07
2022-10-29T05:51:46.745Z,9.95
2022-10-29T05:54:14.594Z,9.05
2022-10-29T05:56:42.668Z,9.70
2022-10-29T05:59:10.554Z,9.45
2022-10-29T06:01:39.936Z,9.90
2022-10-29T06:04:08.025Z,9.70
2022-10-29T06:06:35.876Z,9.20
2022-10-29T06:09:03.800Z,10.85
2022-10-29T06:11:31.701Z,10.25
2022-10-29T06:13:59.590Z,11.50
2022-10-29T06:16:27.379Z,11.07
2022-10-29T06:18:56.575Z,11.98
2022-10-29T06:21:24.390Z,11.52
2022-10-29T06:23:54.060Z,11.85
2022-10-29T06:26:22.497Z,12.55
2022-10-29T06:28:50.451Z,11.77
2022-10-29T06:31:18.294Z,11.85
2022-10-29T06:33:46.117Z,12.77
2022-10-29T06:36:15.442Z,12.45
2022-10-29T06:38:43.497Z,10.38
2022-10-29T06:41:11.433Z,12.85
2022-10-29T06:43:39.380Z,12.57
2022-10-29T06:46:07.371Z,13.75
2022-10-29T06:48:35.416Z,12.73
2022-10-29T06:51:03.222Z,13.98
2022-10-29T06:53:32.523Z,13.13
2022-10-29T06:56:00.709Z,13.88
2022-10-29T06:58:28.584Z,13.38
2022-10-29T07:00:59.358Z,12.40
2022-10-29T07:03:27.205Z,13.02
2022-10-29T07:05:58.822Z,13.45
2022-10-29T07:08:27.376Z,12.43
2022-10-29T07:10:56.679Z,13.48
2022-10-29T07:13:24.585Z,15.02
2022-10-29T07:15:52.468Z,13.82
2022-10-29T07:18:20.460Z,14.20
2022-10-29T07:20:48.354Z,13.55
2022-10-29T07:23:16.215Z,14.05
2022-10-29T07:25:44.394Z,14.93
2022-10-29T07:28:16.198Z,13.55
2022-10-29T07:30:44.617Z,15.38
2022-10-29T07:33:12.632Z,15.73
2022-10-29T07:35:40.711Z,15.40
2022-10-29T07:38:11.290Z,16.67
2022-10-29T07:40:40.971Z,21.63
2022-10-29T07:43:10.336Z,22.30
2022-10-29T07:45:39.564Z,20.87
2022-10-29T07:48:08.659Z,17.38
2022-10-29T07:50:38.265Z,17.80
2022-10-29T07:53:07.682Z,15.98
2022-10-29T07:55:35.929Z,16.48
2022-10-29T07:58:06.250Z,16.58
2022-10-29T08:00:36.224Z,15.25
2022-10-29T08:03:06.192Z,14.02
2022-10-29T08:05:34.322Z,13.77
2022-10-29T08:08:02.309Z,13.25
2022-10-29T08:10:31.595Z,13.38
2022-10-29T08:13:01.718Z,13.38
2022-10-29T08:15:31.822Z,13.95
2022-10-29T08:18:01.597Z,14.02
2022-10-29T08:20:30.993Z,14.45
2022-10-29T08:23:00.977Z,14.00
2022-10-29T08:25:29.373Z,14.45
2022-10-29T08:28:01.467Z,14.05
2022-10-29T08:30:30.232Z,13.75
2022-10-29T08:32:58.763Z,14.77
2022-10-29T08:35:27.329Z,14.00
2022-10-29T08:37:56.799Z,14.77
2022-10-29T08:40:31.126Z,15.35
2022-10-29T08:43:20.429Z,15.32
2022-10-29T08:45:49.704Z,15.10
2022-10-29T08:48:28.005Z,15.40
2022-10-29T08:51:04.638Z,15.18
2022-10-29T08:53:38.207Z,14.55
2022-10-29T08:56:12.315Z,15.13
2022-10-29T08:58:49.258Z,18.30
2022-10-29T09:01:19.889Z,21.38
2022-10-29T09:03:47.808Z,19.08
2022-10-29T09:06:21.726Z,16.33
2022-10-29T09:09:06.626Z,16.08
2022-10-29T09:11:48.583Z,15.55
2022-10-29T09:14:51.669Z,15.52
2022-10-29T09:17:30.650Z,14.35
2022-10-29T09:20:14.195Z,16.25
2022-10-29T09:22:57.088Z,17.50
2022-10-29T09:25:31.328Z,15.23
2022-10-29T09:28:12.831Z,16.13
2022-10-29T09:30:48.800Z,16.20
2022-10-29T09:33:21.261Z,17.30
2022-10-29T09:35:54.309Z,16.23
2022-10-29T09:38:25.202Z,16.48
2022-10-29T09:40:58.691Z,20.35
2022-10-29T09:43:48.516Z,17.55
2022-10-29T09:46:25.882Z,15.50
2022-10-29T09:49:02.957Z,15.38
2022-10-29T09:51:38.390Z,16.45
2022-10-29T09:54:06.752Z,17.40
2022-10-29T09:56:36.098Z,15.30
2022-10-29T09:59:18.138Z,13.27
2022-10-29T10:01:47.726Z,12.10
2022-10-29T10:04:23.571Z,9.63
2022-10-29T10:07:07.227Z,10.65
2022-10-29T10:09:52.978Z,8.68
2022-10-29T10:12:26.094Z,8.68
2022-10-29T10:15:05.920Z,8.82
2022-10-29T10:17:56.085Z,8.40
2022-10-29T10:20:30.587Z,7.93
2022-10-29T10:22:58.786Z,8.15
2022-10-29T10:25:35.403Z,7.90
2022-10-29T10:28:24.026Z,7.80
2022-10-29T10:31:11.703Z,8.60
2022-10-29T10:33:51.176Z,8.05
2022-10-29T10:36:21.885Z,8.30
2022-10-29T10:38:52.136Z,6.65
2022-10-29T10:41:25.256Z,7.72
2022-10-29T10:43:58.936Z,7.35
2022-10-29T10:46:30.389Z,7.22
2022-10-29T10:49:04.628Z,7.50
2022-10-29T10:51:34.403Z,7.65
2022-10-29T10:54:05.188Z,8.25
2022-10-29T10:56:34.511Z,7.25
2022-10-29T10:59:10.725Z,7.70
2022-10-29T11:01:43.381Z,6.88
2022-10-29T11:04:17.347Z,6.78
2022-10-29T11:06:49.669Z,6.85
2022-10-29T11:09:25.148Z,5.75
2022-10-29T11:12:01.527Z,6.75
2022-10-29T11:14:36.611Z,5.72
2022-10-29T11:17:09.433Z,6.28
2022-10-29T11:19:42.224Z,6.53
2022-10-29T11:22:21.119Z,6.68
2022-10-29T11:24:58.126Z,6.28
2022-10-29T11:27:35.510Z,7.20
2022-10-29T11:30:07.771Z,6.60
2022-10-29T11:32:47.557Z,7.32
2022-10-29T11:35:21.094Z,7.22
2022-10-29T11:37:56.961Z,6.68
2022-10-29T11:40:38.669Z,7.07
2022-10-29T11:43:11.751Z,7.68
2022-10-29T11:45:52.667Z,6.88
2022-10-29T11:48:33.808Z,6.55
2022-10-29T11:51:07.343Z,6.80
2022-10-29T11:53:56.606Z,7.32
2022-10-29T11:56:36.426Z,7.30
2022-10-29T11:59:12.645Z,6.85
2022-10-29T12:01:53.124Z,6.97
2022-10-29T12:04:41.067Z,6.38
2022-10-29T12:07:30.062Z,6.30
2022-10-29T12:10:09.893Z,6.47
2022-10-29T12:12:46.203Z,7.47
2022-10-29T12:15:23.319Z,7.07
2022-10-29T12:18:02.374Z,6.57
2022-10-29T12:20:38.185Z,7.43
2022-10-29T12:23:18.822Z,8.43
2022-10-29T12:25:59.923Z,6.63
2022-10-29T12:28:36.732Z,7.28
2022-10-29T12:31:15.060Z,7.15
2022-10-29T12:33:51.157Z,6.95
2022-10-29T12:36:29.701Z,7.13
2022-10-29T12:38:58.956Z,6.47
2022-10-29T12:41:32.645Z,7.57
2022-10-29T12:44:09.427Z,6.93
2022-10-29T12:46:42.008Z,6.45
2022-10-29T12:49:17.657Z,7.05
2022-10-29T12:51:51.512Z,6.43
2022-10-29T12:54:40.966Z,6.60
2022-10-29T12:57:28.715Z,7.30
2022-10-29T12:59:56.724Z,6.75
2022-10-29T13:02:45.128Z,7.30
2022-10-29T13:05:37.164Z,6.93
2022-10-29T13:08:20.233Z,7.30
2022-10-29T13:10:57.218Z,8.00
2022-10-29T13:13:51.163Z,7.80
2022-10-29T13:16:22.314Z,8.30
2022-10-29T13:19:14.037Z,7.60
2022-10-29T13:22:01.862Z,8.18
2022-10-29T13:24:31.121Z,8.35
2022-10-29T13:27:02.097Z,7.07
2022-10-29T13:29:51.046Z,7.60
2022-10-29T13:32:35.907Z,7.15
2022-10-29T13:35:06.909Z,7.20
2022-10-29T13:37:51.634Z,8.18
2022-10-29T13:40:42.484Z,6.97
2022-10-29T13:43:16.283Z,7.53
2022-10-29T13:45:48.423Z,7.03
2022-10-29T13:48:25.413Z,7.38
2022-10-29T13:50:56.028Z,7.20
2022-10-29T13:53:35.442Z,6.90
2022-10-29T13:56:03.683Z,7.40
2022-10-29T13:58:35.763Z,6.60
2022-10-29T14:01:10.281Z,6.75
2022-10-29T14:03:48.017Z,7.40
2022-10-29T14:06:21.695Z,7.30
2022-10-29T14:08:56.998Z,6.90
2022-10-29T14:11:28.343Z,7.18
2022-10-29T14:13:59.636Z,7.50
2022-10-29T14:16:32.530Z,7.20
2022-10-29T14:19:14.897Z,6.90
2022-10-29T14:21:42.928Z,7.38
2022-10-29T14:24:16.116Z,8.15
2022-10-29T14:26:45.941Z,7.25
2022-10-29T14:29:15.176Z,8.00
2022-10-29T14:31:43.011Z,7.07
2022-10-29T14:34:26.455Z,6.80
2022-10-29T14:36:59.048Z,7.13
2022-10-29T14:39:37.078Z,7.70
2022-10-29T14:42:20.588Z,7.45
2022-10-29T14:44:52.097Z,7.10
2022-10-29T14:47:30.472Z,7.15
2022-10-29T14:50:03.645Z,7.15
2022-10-29T14:52:34.715Z,7.75
2022-10-29T14:55:08.895Z,7.15
2022-10-29T14:57:42.037Z,7.20
2022-10-29T15:00:23.957Z,7.45
2022-10-29T15:02:53.320Z,7.00
2022-10-29T15:05:26.402Z,8.60
2022-10-29T15:08:06.696Z,7.07
2022-10-29T15:10:46.831Z,7.13
2022-10-29T15:13:31.423Z,6.63
2022-10-29T15:16:03.345Z,6.80
2022-10-29T15:18:33.729Z,7.57
2022-10-29T15:21:03.347Z,7.72
2022-10-29T15:23:35.402Z,7.75
2022-10-29T15:26:08.270Z,7.75
2022-10-29T15:28:40.907Z,7.22
2022-10-29T15:31:17.691Z,8.23
2022-10-29T15:33:46.404Z,7.35
2022-10-29T15:36:14.622Z,7.55
2022-10-29T15:39:20.518Z,8.38
2022-10-29T15:41:51.763Z,9.40
2022-10-29T15:44:34.840Z,10.45
2022-10-29T15:47:04.677Z,9.15
2022-10-29T15:49:33.083Z,8.68
2022-10-29T15:52:01.640Z,8.77
2022-10-29T15:54:30.054Z,10.40
2022-10-29T15:56:59.462Z,9.23
2022-10-29T15:59:27.690Z,9.67
2022-10-29T16:01:55.732Z,7.85
2022-10-29T16:04:23.738Z,9.20
2022-10-29T16:06:51.820Z,9.25
2022-10-29T16:09:21.852Z,9.13
2022-10-29T16:11:50.836Z,8.63
2022-10-29T16:14:20.289Z,9.90
2022-10-29T16:16:48.274Z,8.93
2022-10-29T16:19:16.180Z,12.48
2022-10-29T16:21:44.045Z,9.95
2022-10-29T16:24:15.448Z,9.68
2022-10-29T16:26:43.725Z,9.85
2022-10-29T16:29:11.633Z,10.43
2022-10-29T16:31:40.841Z,11.20
2022-10-29T16:34:14.240Z,12.80
2022-10-29T16:36:42.298Z,10.10
2022-10-29T16:39:10.127Z,8.75
2022-10-29T16:41:37.965Z,9.05
2022-10-29T16:44:06.151Z,10.18
2022-10-29T16:46:33.961Z,11.25
2022-10-29T16:49:03.249Z,11.13
2022-10-29T16:51:31.260Z,10.70
2022-10-29T16:53:59.206Z,10.68
2022-10-29T16:56:26.964Z,10.35
2022-10-29T16:59:01.799Z,10.73
2022-10-29T17:01:30.264Z,9.82
2022-10-29T17:03:58.468Z,11.30
2022-10-29T17:06:27.817Z,9.57
2022-10-29T17:08:55.672Z,9.77
2022-10-29T17:11:23.594Z,11.52
2022-10-29T17:13:51.961Z,11.73
2022-10-29T17:16:19.994Z,13.65
2022-10-29T17:18:50.731Z,12.77
2022-10-29T17:21:19.116Z,9.40
2022-10-29T17:23:48.455Z,9.57
2022-10-29T17:26:16.636Z,14.87
2022-10-29T17:28:44.571Z,14.50
2022-10-29T17:31:12.451Z,14.50
2022-10-29T17:33:41.276Z,13.10
2022-10-29T17:36:12.936Z,12.73
2022-10-29T17:38:41.311Z,11.50
2022-10-29T17:41:10.780Z,10.77
2022-10-29T17:43:38.724Z,10.97
2022-10-29T17:46:07.069Z,10.75
2022-10-29T17:48:36.122Z,12.25
2022-10-29T17:51:04.603Z,12.43
2022-10-29T17:53:32.985Z,12.77
2022-10-29T17:56:01.496Z,14.05
2022-10-29T17:58:31.468Z,10.98
2022-10-29T18:01:04.977Z,13.70
2022-10-29T18:03:32.944Z,11.95
2022-10-29T18:06:02.113Z,10.93
2022-10-29T18:08:30.478Z,10.25
2022-10-29T18:11:03.675Z,11.07
2022-10-29T18:13:34.724Z,10.20
2022-10-29T18:16:03.250Z,10.55
2022-10-29T18:18:42.929Z,9.93
2022-10-29T18:21:24.683Z,9.88
2022-10-29T18:23:53.160Z,10.23
2022-10-29T18:26:23.774Z,12.48
2022-10-29T18:28:53.534Z,13.40
2022-10-29T18:31:22.109Z,12.98
2022-10-29T18:33:50.093Z,11.23
2022-10-29T18:36:18.082Z,11.10
2022-10-29T18:38:51.151Z,12.23
2022-10-29T18:41:19.069Z,11.68
2022-10-29T18:43:47.058Z,11.27
2022-10-29T18:46:16.537Z,11.32
2022-10-29T18:48:46.956Z,11.20
2022-10-29T18:51:17.106Z,11.77
2022-10-29T18:53:44.956Z,13.55
2022-10-29T18:56:15.026Z,13.43
2022-10-29T18:58:43.642Z,14.40
2022-10-29T19:01:13.011Z,12.13
2022-10-29T19:03:42.943Z,11.65
2022-10-29T19:06:13.199Z,12.70
2022-10-29T19:11:12.747Z,14.68
2022-10-29T19:13:41.047Z,14.95
2022-10-29T19:16:11.189Z,13.02
2022-10-29T19:18:40.758Z,11.35
2022-10-29T19:21:12.447Z,11.80
2022-10-29T19:23:41.065Z,10.57
2022-10-29T19:26:11.136Z,12.05
2022-10-29T19:28:40.418Z,15.30
2022-10-29T19:31:09.873Z,14.50
2022-10-29T19:33:37.976Z,12.70
2022-10-29T19:36:08.118Z,11.57
2022-10-29T19:38:37.562Z,11.10
2022-10-29T19:41:05.459Z,11.83
2022-10-29T19:43:33.862Z,12.27
2022-10-29T19:46:01.893Z,10.98
2022-10-29T19:48:29.833Z,11.77
2022-10-29T19:50:57.697Z,11.23
2022-10-29T19:53:26.688Z,10.98
2022-10-29T19:55:56.180Z,10.50
2022-10-29T19:58:27.278Z,9.77
2022-10-29T20:00:56.073Z,9.88
2022-10-29T20:03:23.854Z,10.40
2022-10-29T20:05:56.694Z,10.82
2022-10-29T20:08:24.582Z,11.23
2022-10-29T20:10:56.872Z,9.98
2022-10-29T20:13:25.047Z,10.88
2022-10-29T20:15:53.523Z,11.05
2022-10-29T20:18:21.673Z,11.40
2022-10-29T20:20:54.905Z,11.30
2022-10-29T20:23:23.096Z,11.02
2022-10-29T20:25:51.195Z,9.93
2022-10-29T20:28:20.444Z,10.95
2022-10-29T20:30:48.346Z,9.68
2022-10-29T20:33:16.469Z,10.70
2022-10-29T20:35:44.595Z,9.30
2022-10-29T20:38:12.370Z,9.93
2022-10-29T20:40:40.297Z,10.43
2022-10-29T20:43:08.177Z,11.35
2022-10-29T20:45:37.433Z,9.50
2022-10-29T20:48:05.889Z,10.00
2022-10-29T20:50:34.839Z,9.63
2022-10-29T20:53:02.735Z,10.32
2022-10-29T20:55:30.690Z,10.00
2022-10-29T20:57:58.807Z,8.82
2022-10-29T21:00:26.974Z,9.52
2022-10-29T21:02:56.253Z,9.40
2022-10-29T21:05:24.092Z,9.13
2022-10-29T21:07:52.074Z,11.05
2022-10-29T21:10:19.936Z,11.35
2022-10-29T21:12:47.708Z,10.23
2022-10-29T21:15:15.806Z,10.70
2022-10-29T21:17:43.716Z,9.68
2022-10-29T21:20:13.095Z,9.80
2022-10-29T21:22:40.944Z,8.93
2022-10-29T21:25:09.695Z,9.88
2022-10-29T21:27:37.560Z,9.80
2022-10-29T21:30:06.310Z,9.27
2022-10-29T21:32:34.200Z,10.32
2022-10-29T21:35:02.002Z,10.02
2022-10-29T21:37:31.244Z,9.32
2022-10-29T21:40:01.749Z,10.00
2022-10-29T21:42:33.060Z,9.15
2022-10-29T21:45:00.884Z,9.30
2022-10-29T21:47:28.727Z,8.90
2022-10-29T21:49:56.556Z,9.55
2022-10-29T21:52:24.582Z,9.55
2022-10-29T21:54:53.840Z,9.82
2022-10-29T21:57:21.709Z,9.18
2022-10-29T21:59:49.528Z,8.77
2022-10-29T22:02:17.431Z,8.82
2022-10-29T22:04:45.322Z,9.20
2022-10-29T22:07:13.286Z,8.88
2022-10-29T22:09:41.151Z,9.80
2022-10-29T22:12:10.350Z,8.90
2022-10-29T22:14:38.354Z,9.40
2022-10-29T22:17:06.141Z,8.98
2022-10-29T22:19:33.938Z,8.90
2022-10-29T22:22:01.789Z,9.90
2022-10-29T22:24:29.601Z,9.88
2022-10-29T22:26:57.546Z,10.77
2022-10-29T22:29:26.720Z,10.45
2022-10-29T22:31:54.746Z,11.00
2022-10-29T22:34:22.654Z,10.10
2022-10-29T22:36:51.619Z,9.55
2022-10-29T22:39:19.544Z,9.25
2022-10-29T22:41:47.630Z,8.35
2022-10-29T22:44:15.405Z,9.30
2022-10-29T22:46:44.639Z,8.90
2022-10-29T22:49:12.956Z,8.18
2022-10-29T22:51:40.946Z,9.00
2022-10-29T22:54:09.044Z,8.90
2022-10-29T22:56:38.974Z,8.35
2022-10-29T22:59:07.471Z,8.95
2022-10-29T23:01:40.333Z,8.77
2022-10-29T23:04:13.276Z,8.50
2022-10-29T23:06:41.234Z,8.75
2022-10-29T23:09:09.099Z,8.15
2022-10-29T23:11:39.198Z,8.18
2022-10-29T23:14:07.420Z,7.65
2022-10-29T23:16:40.675Z,7.47
2022-10-29T23:19:08.600Z,8.00
2022-10-29T23:21:37.790Z,7.70
2022-10-29T23:24:06.251Z,7.72
2022-10-29T23:26:34.100Z,8.25
2022-10-29T23:29:01.967Z,7.80
2022-10-29T23:31:29.950Z,8.00
2022-10-29T23:33:58.768Z,7.53
2022-10-29T23:36:28.021Z,7.55
2022-10-29T23:38:58.765Z,7.18
2022-10-29T23:41:26.878Z,7.85
2022-10-29T23:43:54.852Z,7.80
2022-10-29T23:46:22.988Z,7.35
2022-10-29T23:48:51.145Z,8.23
2022-10-29T23:51:19.677Z,8.02
2022-10-29T23:53:50.381Z,7.75
2022-10-29T23:56:22.559Z,7.90
2022-10-29T23:58:50.319Z,7.40
